createdAt,value
2018-08-20T00:00:30.254Z,100336.49
2018-08-20T00:03:41.774Z,100343.60
2018-08-20T00:06:57.405Z,100339.18
2018-08-20T00:10:00.618Z,100340.82
2018-08-20T00:13:03.758Z,100338.28
2018-08-20T00:16:06.914Z,100337.84
2018-08-20T00:19:13.449Z,100336.69
2018-08-20T00:22:19.383Z,100342.16
2018-08-20T00:25:22.664Z,100332.11
2018-08-20T00:28:26.577Z,100334.23
2018-08-20T00:31:29.669Z,100334.09
2018-08-20T00:34:32.805Z,100330.27
2018-08-20T00:37:35.902Z,100338.89
2018-08-20T00:40:39.061Z,100340.66
2018-08-20T00:43:42.163Z,100338.51
2018-08-20T00:46:46.003Z,100340.56
2018-08-20T00:49:49.114Z,100345.55
2018-08-20T00:52:52.302Z,100339.77
2018-08-20T00:55:55.437Z,100336.92
2018-08-20T00:58:58.605Z,100342.55
2018-08-20T01:02:01.774Z,100339.94
2018-08-20T01:05:05.075Z,100338.28
2018-08-20T01:08:08.191Z,100339.09
2018-08-20T01:11:11.388Z,100339.46
2018-08-20T01:14:14.552Z,100333.05
2018-08-20T01:17:17.717Z,100332.37
2018-08-20T01:20:20.856Z,100336.52
2018-08-20T01:23:24.054Z,100336.61
2018-08-20T01:26:27.191Z,100337.80
2018-08-20T01:29:30.316Z,100334.05
2018-08-20T01:32:33.393Z,100330.38
2018-08-20T01:35:36.541Z,100332.89
2018-08-20T01:38:42.495Z,100323.67
2018-08-20T01:41:45.685Z,100321.52
2018-08-20T01:44:48.801Z,100318.95
2018-08-20T01:47:51.907Z,100323.89
2018-08-20T01:50:55.018Z,100325.34
2018-08-20T01:53:58.142Z,100327.94
2018-08-20T01:57:01.720Z,100331.23
2018-08-20T02:05:39.864Z,100324.08
2018-08-20T02:08:43.025Z,100321.78
2018-08-20T02:11:46.181Z,100319.09
2018-08-20T02:14:49.397Z,100319.56
2018-08-20T02:17:52.679Z,100320.89
2018-08-20T02:20:55.831Z,100309.16
2018-08-20T02:23:58.890Z,100312.02
2018-08-20T02:27:02.104Z,100305.21
2018-08-20T02:30:05.849Z,100304.77
2018-08-20T02:33:09.368Z,100307.02
2018-08-20T02:36:12.599Z,100308.69
2018-08-20T02:39:15.873Z,100310.48
2018-08-20T02:42:18.966Z,100298.47
2018-08-20T02:45:22.075Z,100301.35
2018-08-20T02:48:25.209Z,100302.03
2018-08-20T02:51:28.366Z,100296.34
2018-08-20T02:54:31.513Z,100299.84
2018-08-20T02:57:34.677Z,100292.30
2018-08-20T03:00:37.863Z,100297.73
2018-08-20T03:03:41.106Z,100301.19
2018-08-20T03:06:44.263Z,100298.42
2018-08-20T03:09:47.330Z,100286.43
2018-08-20T03:12:50.458Z,100290.25
2018-08-20T03:15:53.744Z,100295.57
2018-08-20T03:18:56.884Z,100295.15
2018-08-20T03:22:00.069Z,100297.22
2018-08-20T03:25:03.889Z,100303.64
2018-08-20T03:28:07.083Z,100312.40
2018-08-20T03:31:10.407Z,100319.63
2018-08-20T03:34:13.693Z,100319.81
2018-08-20T03:37:16.841Z,100323.48
2018-08-20T03:40:19.965Z,100323.66
2018-08-20T03:43:23.193Z,100325.75
2018-08-20T03:46:26.425Z,100315.94
2018-08-20T03:49:29.530Z,100321.45
2018-08-20T03:52:32.735Z,100330.05
2018-08-20T03:55:35.826Z,100319.13
2018-08-20T03:58:39.004Z,100319.92
2018-08-20T04:01:42.204Z,100332.14
2018-08-20T04:04:49.025Z,100331.95
2018-08-20T04:07:59.194Z,100332.70
2018-08-20T04:11:02.376Z,100335.13
2018-08-20T04:14:06.191Z,100334.12
2018-08-20T04:17:09.759Z,100334.83
2018-08-20T04:20:12.886Z,100344.44
2018-08-20T04:23:17.372Z,100337.12
2018-08-20T04:26:20.513Z,100341.09
2018-08-20T04:29:23.667Z,100333.75
2018-08-20T04:32:26.869Z,100333.97
2018-08-20T04:35:30.207Z,100337.17
2018-08-20T04:38:33.327Z,100336.67
2018-08-20T04:41:36.735Z,100333.70
2018-08-20T04:44:40.461Z,100328.96
2018-08-20T04:47:43.604Z,100326.57
2018-08-20T04:50:47.092Z,100340.70
2018-08-20T04:53:50.127Z,100336.75
2018-08-20T04:56:53.247Z,100330.31
2018-08-20T04:59:56.532Z,100328.00
2018-08-20T05:02:59.704Z,100333.48
2018-08-20T05:06:03.784Z,100335.13
2018-08-20T05:09:07.436Z,100338.22
2018-08-20T05:12:10.961Z,100320.80
2018-08-20T05:15:14.317Z,100336.02
2018-08-20T05:18:17.723Z,100346.39
2018-08-20T05:21:21.237Z,100355.34
2018-08-20T05:24:24.386Z,100352.65
2018-08-20T05:27:27.563Z,100355.16
2018-08-20T05:30:30.857Z,100350.91
2018-08-20T05:33:34.372Z,100356.59
2018-08-20T05:36:38.141Z,100361.89
2018-08-20T05:39:41.299Z,100360.23
2018-08-20T05:42:44.582Z,100361.61
2018-08-20T05:45:47.724Z,100368.05
2018-08-20T05:48:50.847Z,100368.52
2018-08-20T05:51:54.741Z,100375.05
2018-08-20T05:54:57.840Z,100375.06
2018-08-20T05:58:00.943Z,100376.44
2018-08-20T06:01:04.546Z,100375.75
2018-08-20T06:04:07.813Z,100376.51
2018-08-20T06:07:10.970Z,100379.79
2018-08-20T06:10:14.557Z,100379.86
2018-08-20T06:13:17.768Z,100380.34
2018-08-20T06:16:20.965Z,100392.58
2018-08-20T06:19:24.386Z,100396.61
2018-08-20T06:22:27.665Z,100399.13
2018-08-20T06:25:30.861Z,100403.53
2018-08-20T06:28:34.296Z,100402.59
2018-08-20T06:31:37.566Z,100407.38
2018-08-20T06:34:40.709Z,100407.19
2018-08-20T06:37:44.562Z,100411.44
2018-08-20T06:40:47.649Z,100421.05
2018-08-20T06:43:51.022Z,100422.95
2018-08-20T06:46:54.414Z,100424.97
2018-08-20T06:49:57.714Z,100423.17
2018-08-20T06:53:00.893Z,100425.96
2018-08-20T06:56:04.519Z,100438.47
2018-08-20T06:59:07.682Z,100445.38
2018-08-20T07:02:10.729Z,100438.34
2018-08-20T07:05:14.238Z,100445.67
2018-08-20T07:08:17.323Z,100457.03
2018-08-20T07:11:20.566Z,100464.50
2018-08-20T07:14:23.867Z,100462.59
2018-08-20T07:17:26.946Z,100460.94
2018-08-20T07:20:30.051Z,100470.30
2018-08-20T07:23:34.174Z,100473.45
2018-08-20T07:26:37.783Z,100484.11
2018-08-20T07:29:42.743Z,100485.53
2018-08-20T07:32:45.971Z,100483.29
2018-08-20T07:35:49.301Z,100485.30
2018-08-20T07:38:52.555Z,100489.05
2018-08-20T07:41:55.888Z,100491.67
2018-08-20T07:44:59.119Z,100485.56
2018-08-20T07:48:02.406Z,100491.88
2018-08-20T07:51:05.978Z,100499.23
2018-08-20T07:54:09.138Z,100499.81
2018-08-20T07:57:12.441Z,100500.98
2018-08-20T08:00:15.785Z,100499.25
2018-08-20T08:03:24.265Z,100502.81
2018-08-20T08:06:27.375Z,100504.61
2018-08-20T08:09:30.775Z,100500.82
2018-08-20T08:12:34.098Z,100499.64
2018-08-20T08:15:37.366Z,100504.66
2018-08-20T08:18:40.648Z,100508.45
2018-08-20T08:21:43.872Z,100510.84
2018-08-20T08:24:47.062Z,100510.56
2018-08-20T08:27:50.278Z,100515.63
2018-08-20T08:30:53.413Z,100515.91
2018-08-20T08:33:56.677Z,100522.20
2018-08-20T08:36:59.835Z,100522.05
2018-08-20T08:40:03.311Z,100525.25
2018-08-20T08:43:06.658Z,100521.00
2018-08-20T08:46:09.918Z,100527.27
2018-08-20T08:49:13.164Z,100526.67
2018-08-20T08:52:16.338Z,100525.73
2018-08-20T08:55:19.580Z,100529.83
2018-08-20T08:58:29.342Z,100535.51
2018-08-20T09:01:32.511Z,100537.28
2018-08-20T09:04:35.672Z,100534.56
2018-08-20T09:07:39.509Z,100534.04
2018-08-20T09:10:42.583Z,100540.64
2018-08-20T09:13:45.906Z,100546.63
2018-08-20T09:16:49.442Z,100545.80
2018-08-20T09:19:52.605Z,100541.45
2018-08-20T09:22:55.863Z,100540.22
2018-08-20T09:25:59.065Z,100544.92
2018-08-20T09:29:02.258Z,100536.48
2018-08-20T09:32:05.445Z,100538.89
2018-08-20T09:35:09.249Z,100544.57
2018-08-20T09:38:12.475Z,100544.48
2018-08-20T09:41:15.666Z,100537.09
2018-08-20T09:44:18.897Z,100537.77
2018-08-20T09:47:22.097Z,100550.27
2018-08-20T09:50:25.268Z,100547.09
2018-08-20T09:53:28.576Z,100551.35
2018-08-20T09:56:31.741Z,100554.50
2018-08-20T09:59:34.937Z,100556.91
2018-08-20T10:02:38.192Z,100560.16
2018-08-20T10:05:41.590Z,100560.81
2018-08-20T10:08:44.857Z,100558.79
2018-08-20T10:11:48.130Z,100555.20
2018-08-20T10:14:51.266Z,100552.33
2018-08-20T10:17:54.727Z,100553.28
2018-08-20T10:20:57.898Z,100550.01
2018-08-20T10:24:01.141Z,100546.11
2018-08-20T10:27:04.379Z,100543.12
2018-08-20T10:30:09.693Z,100545.89
2018-08-20T10:33:12.881Z,100548.38
2018-08-20T10:36:16.086Z,100548.10
2018-08-20T10:39:19.368Z,100546.85
2018-08-20T10:42:22.533Z,100547.77
2018-08-20T10:45:31.354Z,100551.84
2018-08-20T10:48:34.513Z,100559.73
2018-08-20T10:51:37.788Z,100547.77
2018-08-20T10:54:41.076Z,100551.89
2018-08-20T10:57:44.832Z,100550.20
2018-08-20T11:00:48.040Z,100542.39
2018-08-20T11:03:57.300Z,100546.55
2018-08-20T11:07:00.573Z,100537.66
2018-08-20T11:10:03.902Z,100545.19
2018-08-20T11:13:07.142Z,100539.98
2018-08-20T11:16:10.744Z,100539.16
2018-08-20T11:19:13.976Z,100542.84
2018-08-20T11:22:17.297Z,100535.45
2018-08-20T11:25:20.461Z,100540.16
2018-08-20T11:28:23.624Z,100536.38
2018-08-20T11:31:26.924Z,100537.83
2018-08-20T11:34:30.068Z,100527.30
2018-08-20T11:37:33.258Z,100526.17
2018-08-20T11:40:36.369Z,100518.56
2018-08-20T11:43:39.547Z,100519.98
2018-08-20T11:46:42.729Z,100514.97
2018-08-20T11:49:45.831Z,100511.96
2018-08-20T11:52:49.048Z,100511.41
2018-08-20T11:55:52.189Z,100509.27
2018-08-20T11:58:55.394Z,100508.63
2018-08-20T12:01:58.700Z,100509.21
2018-08-20T12:05:01.902Z,100517.31
2018-08-20T12:08:05.280Z,100508.76
2018-08-20T12:11:08.390Z,100510.08
2018-08-20T12:14:11.511Z,100493.01
2018-08-20T12:17:14.878Z,100504.95
2018-08-20T12:20:17.995Z,100507.09
2018-08-20T12:23:21.200Z,100500.91
2018-08-20T12:26:24.345Z,100500.22
2018-08-20T12:29:27.769Z,100509.73
2018-08-20T12:32:30.890Z,100507.77
2018-08-20T12:35:34.122Z,100501.11
2018-08-20T12:38:37.353Z,100511.89
2018-08-20T12:41:40.995Z,100515.36
2018-08-20T12:44:44.226Z,100499.95
2018-08-20T12:47:47.471Z,100502.83
2018-08-20T12:50:57.223Z,100512.11
2018-08-20T12:54:00.450Z,100503.03
2018-08-20T12:57:03.730Z,100510.66
2018-08-20T13:00:07.341Z,100517.88
2018-08-20T13:03:10.506Z,100537.84
2018-08-20T13:06:13.741Z,100530.27
2018-08-20T13:09:16.977Z,100528.34
2018-08-20T13:12:20.199Z,100529.20
2018-08-20T13:15:23.332Z,100518.02
2018-08-20T13:18:26.509Z,100520.33
2018-08-20T13:21:29.720Z,100517.27
2018-08-20T13:24:33.190Z,100508.79
2018-08-20T13:27:36.394Z,100507.16
2018-08-20T13:30:39.577Z,100514.17
2018-08-20T13:33:43.048Z,100510.03
2018-08-20T13:36:46.289Z,100505.72
2018-08-20T13:39:49.493Z,100497.89
2018-08-20T13:42:52.729Z,100492.98
2018-08-20T13:45:56.012Z,100490.08
2018-08-20T13:48:59.194Z,100490.08
2018-08-20T13:52:02.641Z,100489.80
2018-08-20T13:55:05.870Z,100497.47
2018-08-20T13:58:09.105Z,100495.46
2018-08-20T14:01:12.344Z,100496.90
2018-08-20T14:04:15.603Z,100503.55
2018-08-20T14:07:18.774Z,100502.00
2018-08-20T14:10:22.047Z,100499.98
2018-08-20T14:13:25.227Z,100486.89
2018-08-20T14:16:28.467Z,100492.55
2018-08-20T14:19:31.630Z,100495.81
2018-08-20T14:22:34.809Z,100495.70
2018-08-20T14:25:38.013Z,100495.83
2018-08-20T14:28:41.242Z,100503.36
2018-08-20T14:31:44.396Z,100503.12
2018-08-20T14:34:47.607Z,100495.32
2018-08-20T14:37:50.781Z,100493.49
2018-08-20T14:40:54.000Z,100494.75
2018-08-20T14:43:57.263Z,100504.39
2018-08-20T14:47:00.453Z,100492.72
2018-08-20T14:50:04.955Z,100495.63
2018-08-20T14:53:08.322Z,100490.98
2018-08-20T14:56:12.469Z,100483.09
2018-08-20T14:59:15.705Z,100485.58
2018-08-20T15:02:18.881Z,100485.80
2018-08-20T15:05:22.138Z,100487.80
2018-08-20T15:08:25.982Z,100490.23
2018-08-20T15:11:29.208Z,100483.75
2018-08-20T15:14:32.394Z,100481.89
2018-08-20T15:17:35.996Z,100477.31
2018-08-20T15:20:39.293Z,100473.95
2018-08-20T15:23:42.476Z,100477.11
2018-08-20T15:26:46.623Z,100465.84
2018-08-20T15:29:49.762Z,100466.52
2018-08-20T15:32:53.021Z,100470.22
2018-08-20T15:35:56.423Z,100470.09
2018-08-20T15:38:59.892Z,100471.80
2018-08-20T15:42:03.124Z,100467.03
2018-08-20T15:45:06.376Z,100468.95
2018-08-20T15:48:09.707Z,100463.80
2018-08-20T15:51:12.911Z,100464.64
2018-08-20T15:54:16.046Z,100459.30
2018-08-20T15:57:19.306Z,100462.52
2018-08-20T16:00:22.474Z,100464.28
2018-08-20T16:03:25.619Z,100466.69
2018-08-20T16:06:28.953Z,100469.70
2018-08-20T16:09:32.069Z,100471.69
2018-08-20T16:12:35.421Z,100460.89
2018-08-20T16:15:38.596Z,100466.69
2018-08-20T16:18:52.851Z,100467.75
2018-08-20T16:21:56.698Z,100460.37
2018-08-20T16:25:00.441Z,100460.20
2018-08-20T16:28:03.953Z,100460.11
2018-08-20T16:31:08.173Z,100455.19
2018-08-20T16:34:11.805Z,100455.77
2018-08-20T16:37:15.647Z,100449.41
2018-08-20T16:40:19.273Z,100459.81
2018-08-20T16:43:23.191Z,100458.61
2018-08-20T16:46:27.232Z,100458.95
2018-08-20T16:49:30.743Z,100460.02
2018-08-20T16:52:34.561Z,100457.34
2018-08-20T16:55:38.321Z,100456.88
2018-08-20T16:58:41.917Z,100454.80
2018-08-20T17:01:45.868Z,100461.65
2018-08-20T17:04:49.200Z,100453.14
2018-08-20T17:07:53.076Z,100455.91
2018-08-20T17:10:56.739Z,100449.00
2018-08-20T17:13:59.930Z,100452.79
2018-08-20T17:17:03.445Z,100456.06
2018-08-20T17:20:08.501Z,100455.36
2018-08-20T17:23:19.606Z,100456.55
2018-08-20T17:26:24.718Z,100466.94
2018-08-20T17:29:28.044Z,100456.93
2018-08-20T17:32:31.607Z,100464.25
2018-08-20T17:35:39.556Z,100469.17
2018-08-20T17:38:42.730Z,100463.92
2018-08-20T17:41:45.893Z,100466.20
2018-08-20T17:44:49.041Z,100471.90
2018-08-20T17:47:52.180Z,100468.04
2018-08-20T17:50:55.339Z,100465.58
2018-08-20T17:53:59.079Z,100467.75
2018-08-20T17:57:02.495Z,100468.27
2018-08-20T18:00:22.307Z,100472.49
2018-08-20T18:03:29.778Z,100475.84
2018-08-20T18:06:50.055Z,100477.98
2018-08-20T18:09:53.328Z,100484.16
2018-08-20T18:12:56.675Z,100487.05
2018-08-20T18:16:01.791Z,100485.97
2018-08-20T18:19:05.032Z,100485.69
2018-08-20T18:22:08.313Z,100481.34
2018-08-20T18:25:11.562Z,100483.77
2018-08-20T18:28:14.837Z,100490.61
2018-08-20T18:31:22.938Z,100490.49
2018-08-20T18:34:26.181Z,100494.07
2018-08-20T18:37:31.186Z,100494.69
2018-08-20T18:40:34.486Z,100497.64
2018-08-20T18:43:37.916Z,100504.30
2018-08-20T18:46:41.073Z,100497.33
2018-08-20T18:49:52.350Z,100502.25
2018-08-20T18:52:55.664Z,100498.68
2018-08-20T18:56:05.300Z,100507.38
2018-08-20T18:59:08.516Z,100514.61
2018-08-20T19:02:21.311Z,100514.61
2018-08-20T19:05:24.659Z,100518.27
2018-08-20T19:08:27.827Z,100525.10
2018-08-20T19:11:31.144Z,100527.71
2018-08-20T19:14:34.377Z,100526.19
2018-08-20T19:17:37.586Z,100523.02
2018-08-20T19:20:41.920Z,100527.09
2018-08-20T19:23:45.188Z,100529.39
2018-08-20T19:26:49.556Z,100532.56
2018-08-20T19:29:52.763Z,100533.43
2018-08-20T19:32:56.001Z,100527.85
2018-08-20T19:35:59.511Z,100533.62
2018-08-20T19:39:02.911Z,100536.80
2018-08-20T19:42:06.876Z,100541.14
2018-08-20T19:45:12.120Z,100537.66
2018-08-20T19:48:15.311Z,100537.78
2018-08-20T19:51:18.633Z,100540.62
2018-08-20T19:54:21.895Z,100536.20
2018-08-20T19:57:25.095Z,100537.63
2018-08-20T20:00:28.362Z,100540.72
2018-08-20T20:03:32.833Z,100544.02
2018-08-20T20:06:36.047Z,100542.23
2018-08-20T20:09:39.476Z,100542.52
2018-08-20T20:12:48.522Z,100543.88
2018-08-20T20:15:52.272Z,100548.39
2018-08-20T20:18:55.669Z,100553.50
2018-08-20T20:21:59.680Z,100552.16
2018-08-20T20:25:03.257Z,100553.50
2018-08-20T20:28:09.640Z,100556.47
2018-08-20T20:32:16.322Z,100550.58
2018-08-20T20:35:19.991Z,100554.44
2018-08-20T20:38:24.255Z,100554.22
2018-08-20T20:41:28.608Z,100559.07
2018-08-20T20:44:32.164Z,100560.87
2018-08-20T20:47:35.936Z,100560.19
2018-08-20T20:50:39.637Z,100557.03
2018-08-20T20:53:44.439Z,100557.27
2018-08-20T20:57:13.469Z,100558.63
2018-08-20T21:00:17.174Z,100564.01
2018-08-20T21:03:30.162Z,100560.28
2018-08-20T21:06:58.175Z,100562.02
2018-08-20T21:10:03.265Z,100570.38
2018-08-20T21:13:07.133Z,100570.27
2018-08-20T21:16:29.061Z,100576.02
2018-08-20T21:19:58.547Z,100575.54
2018-08-20T21:23:02.724Z,100575.27
2018-08-20T21:26:07.207Z,100575.66
2018-08-20T21:29:10.703Z,100581.52
2018-08-20T21:32:14.140Z,100580.05
2018-08-20T21:35:18.245Z,100584.29
2018-08-20T21:38:22.217Z,100583.30
2018-08-20T21:41:27.598Z,100585.91
2018-08-20T21:44:33.115Z,100587.14
2018-08-20T21:47:36.456Z,100585.95
2018-08-20T21:50:39.860Z,100588.97
2018-08-20T21:53:43.474Z,100505.94
2018-08-20T21:56:51.934Z,100593.16
2018-08-20T22:00:18.661Z,100596.05
2018-08-20T22:03:22.348Z,100599.78
2018-08-20T22:06:25.834Z,100599.30
2018-08-20T22:09:29.269Z,100601.23
2018-08-20T22:12:32.779Z,100594.98
2018-08-20T22:15:36.359Z,100603.06
2018-08-20T22:18:41.334Z,100608.60
2018-08-20T22:21:44.832Z,100608.79
2018-08-20T22:24:53.035Z,100608.48
2018-08-20T22:27:56.624Z,100606.45
2018-08-20T22:31:00.110Z,100605.12
2018-08-20T22:34:08.496Z,100603.39
2018-08-20T22:37:12.037Z,100601.74
2018-08-20T22:40:17.623Z,100596.41
2018-08-20T22:43:21.147Z,100598.88
2018-08-20T22:46:25.273Z,100597.95
2018-08-20T22:49:28.659Z,100601.99
2018-08-20T22:52:32.122Z,100601.99
2018-08-20T22:55:35.511Z,100603.08
2018-08-20T22:58:39.011Z,100604.76
2018-08-20T23:01:42.517Z,100603.89
2018-08-20T23:04:50.424Z,100611.06
2018-08-20T23:08:08.743Z,100614.23
2018-08-20T23:11:12.200Z,100610.34
2018-08-20T23:14:16.787Z,100608.78
2018-08-20T23:17:25.865Z,100611.74
2018-08-20T23:20:31.234Z,100612.75
2018-08-20T23:23:38.703Z,100617.63
2018-08-20T23:26:42.563Z,100618.10
2018-08-20T23:29:45.981Z,100620.47
2018-08-20T23:32:49.356Z,100615.16
2018-08-20T23:35:52.881Z,100621.12
2018-08-20T23:38:56.326Z,100615.96
2018-08-20T23:41:59.716Z,100616.03
2018-08-20T23:45:03.176Z,100618.42
2018-08-20T23:48:06.723Z,100614.32
2018-08-20T23:51:10.069Z,100615.37
2018-08-20T23:54:13.953Z,100614.18
2018-08-20T23:57:17.216Z,100614.97
